Time;durP1;ratioP1;P1;durP2;ratioP2;P2;SDS_P1;SDS_P2;PMS_P1;PMS_P2;Temp;Humidity;BMP_temperature;BMP_pressure;BME280_temperature;BME280_humidity;BME280_pressure;Samples;Min_cycle;Max_cycle;Signal;HPM_P1;HPM_P2
2023/05/19 00:01:00;;;;;;;14.90;4.15;;;;;;;;;;4958077;28;20026;-72
2023/05/19 00:03:26;;;;;;;9.93;4.03;;;;;;;;;;4947025;28;20051;-72
2023/05/19 00:05:54;;;;;;;10.57;5.10;;;;;;;;;;4951246;28;20339;-71
2023/05/19 00:08:23;;;;;;;11.20;4.00;;;;;;;;;;4948065;28;20430;-72
2023/05/19 00:10:49;;;;;;;18.08;4.60;;;;;;;;;;4951711;28;20027;-72
2023/05/19 00:13:15;;;;;;;12.75;5.43;;;;;;;;;;4945737;28;20138;-73
2023/05/19 00:15:41;;;;;;;11.18;4.40;;;;;;;;;;4956969;28;20089;-72
2023/05/19 00:18:07;;;;;;;16.73;4.07;;;;;;;;;;4950060;28;20035;-73
2023/05/19 00:20:33;;;;;;;10.13;4.65;;;;;;;;;;4948073;28;20032;-74
2023/05/19 00:22:59;;;;;;;15.45;4.38;;;;;;;;;;4946593;28;20092;-74
2023/05/19 00:25:26;;;;;;;18.40;4.50;;;;;;;;;;4949096;28;20050;-74
2023/05/19 00:27:52;;;;;;;20.45;5.30;;;;;;;;;;4940003;28;20146;-74
2023/05/19 00:30:18;;;;;;;13.00;5.13;;;;;;;;;;4952219;28;20031;-73
2023/05/19 00:32:44;;;;;;;9.93;4.22;;;;;;;;;;4953929;28;20126;-74
2023/05/19 00:35:11;;;;;;;11.95;4.18;;;;;;;;;;4959015;28;20102;-73
2023/05/19 00:37:37;;;;;;;10.82;4.47;;;;;;;;;;4950820;28;20075;-72
2023/05/19 00:40:05;;;;;;;16.63;4.60;;;;;;;;;;4947820;28;20043;-73
2023/05/19 00:42:31;;;;;;;13.65;4.68;;;;;;;;;;4945844;28;20043;-73
2023/05/19 00:44:57;;;;;;;18.20;4.75;;;;;;;;;;4948773;28;20103;-73
2023/05/19 00:47:23;;;;;;;8.80;4.72;;;;;;;;;;4949745;28;20070;-73
2023/05/19 00:49:49;;;;;;;13.98;5.05;;;;;;;;;;4947071;28;20106;-73
2023/05/19 00:52:15;;;;;;;9.15;4.30;;;;;;;;;;4951304;28;20047;-74
2023/05/19 00:54:43;;;;;;;12.85;4.97;;;;;;;;;;4949942;28;20061;-73
2023/05/19 00:57:09;;;;;;;18.77;4.90;;;;;;;;;;4955822;28;20046;-74
2023/05/19 00:59:35;;;;;;;17.10;4.82;;;;;;;;;;4948918;28;20042;-72
2023/05/19 01:02:01;;;;;;;22.00;5.10;;;;;;;;;;4943979;28;20039;-73
2023/05/19 01:04:28;;;;;;;14.15;5.30;;;;;;;;;;4951487;28;20102;-73
2023/05/19 01:06:54;;;;;;;15.27;4.72;;;;;;;;;;4945432;28;20042;-73
2023/05/19 01:09:23;;;;;;;13.57;4.15;;;;;;;;;;4950350;28;20106;-73
2023/05/19 01:11:50;;;;;;;12.30;4.28;;;;;;;;;;4947960;28;20133;-73
2023/05/19 01:14:16;;;;;;;7.88;3.90;;;;;;;;;;4946888;28;20039;-73
2023/05/19 01:16:50;;;;;;;12.75;5.38;;;;;;;;;;4952550;28;20045;-72
2023/05/19 01:19:34;;;;;;;11.98;5.05;;;;;;;;;;4954274;28;20031;-73
2023/05/19 01:21:59;;;;;;;19.25;6.03;;;;;;;;;;4954442;28;20035;-73
2023/05/19 01:24:35;;;;;;;12.57;5.30;;;;;;;;;;4954364;28;20798;-73
2023/05/19 01:27:13;;;;;;;13.18;5.22;;;;;;;;;;4954542;28;20086;-73
2023/05/19 01:29:41;;;;;;;9.65;4.53;;;;;;;;;;4951533;28;20478;-72
2023/05/19 01:32:08;;;;;;;15.73;5.10;;;;;;;;;;4958815;28;20512;-72
2023/05/19 01:34:37;;;;;;;10.52;4.20;;;;;;;;;;4953192;28;20405;-72
2023/05/19 01:37:04;;;;;;;12.35;4.53;;;;;;;;;;4954723;28;20027;-72
2023/05/19 01:39:30;;;;;;;10.43;4.68;;;;;;;;;;4943377;28;20063;-72
2023/05/19 01:41:56;;;;;;;17.58;5.60;;;;;;;;;;4943357;28;20062;-72
2023/05/19 01:44:23;;;;;;;18.55;5.38;;;;;;;;;;4947716;28;20335;-72
2023/05/19 01:46:49;;;;;;;10.90;4.53;;;;;;;;;;4949718;28;20035;-73
2023/05/19 01:49:15;;;;;;;13.63;5.43;;;;;;;;;;4937274;28;20126;-73
2023/05/19 01:51:41;;;;;;;12.15;4.60;;;;;;;;;;4946155;28;20101;-73
2023/05/19 01:54:07;;;;;;;12.80;4.80;;;;;;;;;;4945596;28;20063;-73
2023/05/19 01:56:40;;;;;;;14.57;5.25;;;;;;;;;;4952414;28;20481;-72
2023/05/19 01:59:14;;;;;;;12.75;4.75;;;;;;;;;;4949990;28;20036;-72
2023/05/19 02:01:50;;;;;;;19.83;5.22;;;;;;;;;;4957222;28;20031;-72
2023/05/19 02:04:22;;;;;;;13.20;4.63;;;;;;;;;;4948630;28;20031;-72
2023/05/19 02:06:57;;;;;;;10.30;4.43;;;;;;;;;;4937240;29;20036;-72
2023/05/19 02:09:30;;;;;;;16.15;6.53;;;;;;;;;;4939985;28;20082;-73
2023/05/19 02:12:01;;;;;;;13.65;4.88;;;;;;;;;;4954043;28;20113;-72
2023/05/19 02:14:34;;;;;;;11.77;4.75;;;;;;;;;;4952223;28;20381;-72
2023/05/19 02:17:01;;;;;;;13.00;4.70;;;;;;;;;;4955423;28;20035;-73
2023/05/19 02:19:30;;;;;;;15.32;5.15;;;;;;;;;;4951142;28;20102;-72
2023/05/19 02:21:57;;;;;;;15.77;5.10;;;;;;;;;;4952662;28;20042;-72
2023/05/19 02:24:23;;;;;;;8.52;3.97;;;;;;;;;;4952376;28;20054;-73
2023/05/19 02:26:50;;;;;;;15.73;6.28;;;;;;;;;;4953316;29;20035;-72
2023/05/19 02:29:16;;;;;;;12.43;4.40;;;;;;;;;;4949448;28;20038;-72
2023/05/19 02:31:42;;;;;;;13.00;4.32;;;;;;;;;;4968631;28;20039;-72
2023/05/19 02:34:08;;;;;;;13.40;4.93;;;;;;;;;;4953300;29;20365;-73
2023/05/19 02:36:37;;;;;;;12.88;4.68;;;;;;;;;;4950277;28;20177;-73
2023/05/19 02:39:03;;;;;;;11.52;5.03;;;;;;;;;;4951732;28;20030;-73
2023/05/19 02:41:30;;;;;;;17.48;4.75;;;;;;;;;;4952331;28;20057;-73
2023/05/19 02:43:56;;;;;;;13.15;4.88;;;;;;;;;;4952637;28;20482;-73
2023/05/19 02:46:23;;;;;;;13.52;4.53;;;;;;;;;;4951011;28;20094;-73
2023/05/19 02:48:49;;;;;;;15.35;4.93;;;;;;;;;;4938051;28;20031;-72
2023/05/19 02:51:15;;;;;;;12.82;4.78;;;;;;;;;;4950584;28;20110;-74
2023/05/19 02:53:41;;;;;;;12.07;4.70;;;;;;;;;;4935499;29;20127;-73
2023/05/19 02:56:07;;;;;;;11.85;4.95;;;;;;;;;;4964251;28;20019;-73
2023/05/19 02:58:33;;;;;;;10.70;4.70;;;;;;;;;;4951212;28;20046;-72
2023/05/19 03:00:59;;;;;;;16.63;4.78;;;;;;;;;;4950803;28;20023;-73
2023/05/19 03:03:25;;;;;;;11.32;5.43;;;;;;;;;;4968742;28;20082;-73
2023/05/19 03:05:52;;;;;;;10.10;4.80;;;;;;;;;;4954440;28;20045;-73
2023/05/19 03:08:18;;;;;;;9.15;4.20;;;;;;;;;;4950239;28;20397;-73
2023/05/19 03:10:45;;;;;;;11.00;4.35;;;;;;;;;;4950602;28;20840;-73
2023/05/19 03:13:11;;;;;;;6.88;3.55;;;;;;;;;;4951166;28;20043;-73
2023/05/19 03:15:37;;;;;;;11.63;4.22;;;;;;;;;;4944119;28;20027;-72
2023/05/19 03:18:03;;;;;;;13.93;4.25;;;;;;;;;;4952984;28;20031;-73
2023/05/19 03:20:29;;;;;;;13.05;5.20;;;;;;;;;;4946792;28;20035;-73
2023/05/19 03:22:56;;;;;;;14.07;4.78;;;;;;;;;;4949736;28;20047;-73
2023/05/19 03:25:22;;;;;;;11.70;3.65;;;;;;;;;;4948387;28;20402;-73
2023/05/19 03:27:48;;;;;;;10.20;4.55;;;;;;;;;;4963556;28;20066;-71
2023/05/19 03:30:14;;;;;;;7.60;3.90;;;;;;;;;;4946872;28;20027;-75
2023/05/19 03:32:40;;;;;;;16.20;4.97;;;;;;;;;;4946251;28;20093;-72
2023/05/19 03:35:06;;;;;;;13.55;3.65;;;;;;;;;;4943618;28;20082;-73
2023/05/19 03:37:32;;;;;;;10.15;4.63;;;;;;;;;;4950059;28;20043;-72
2023/05/19 03:39:59;;;;;;;11.98;4.28;;;;;;;;;;4949398;28;20540;-74
2023/05/19 03:42:25;;;;;;;18.08;10.07;;;;;;;;;;4944608;28;20157;-73
2023/05/19 03:44:51;;;;;;;24.20;10.10;;;;;;;;;;4963885;28;20035;-73
2023/05/19 03:47:17;;;;;;;36.13;18.23;;;;;;;;;;4952348;28;20478;-73
2023/05/19 03:49:43;;;;;;;16.77;5.75;;;;;;;;;;4950595;28;20028;-73
2023/05/19 03:52:09;;;;;;;15.15;5.97;;;;;;;;;;4949425;28;20035;-76
2023/05/19 03:54:38;;;;;;;11.27;4.78;;;;;;;;;;4947338;28;20063;-74
2023/05/19 03:57:04;;;;;;;15.25;4.30;;;;;;;;;;4952034;29;20066;-75
2023/05/19 03:59:31;;;;;;;12.18;4.22;;;;;;;;;;4952293;28;20157;-75
2023/05/19 04:01:57;;;;;;;17.90;4.28;;;;;;;;;;4954886;28;20493;-74
2023/05/19 04:04:23;;;;;;;11.80;4.00;;;;;;;;;;4946340;28;20082;-75
2023/05/19 04:06:49;;;;;;;19.17;5.03;;;;;;;;;;4948827;28;20043;-73
2023/05/19 04:09:15;;;;;;;17.15;4.82;;;;;;;;;;4947801;28;20027;-74
2023/05/19 04:11:42;;;;;;;12.70;4.32;;;;;;;;;;4943098;28;20031;-74
2023/05/19 04:14:08;;;;;;;14.65;4.25;;;;;;;;;;4945890;28;20036;-73
2023/05/19 04:16:34;;;;;;;12.95;4.13;;;;;;;;;;4952438;28;20043;-74
2023/05/19 04:19:00;;;;;;;14.50;5.13;;;;;;;;;;4943886;28;20492;-73
2023/05/19 04:21:27;;;;;;;15.93;4.95;;;;;;;;;;4948238;28;20058;-73
2023/05/19 04:23:53;;;;;;;17.73;4.10;;;;;;;;;;4947168;28;20059;-73
2023/05/19 04:26:21;;;;;;;11.48;4.50;;;;;;;;;;4946140;28;20050;-74
2023/05/19 04:28:47;;;;;;;12.65;5.47;;;;;;;;;;4952380;28;20038;-73
2023/05/19 04:31:14;;;;;;;16.40;5.07;;;;;;;;;;4955952;28;20074;-74
2023/05/19 04:33:40;;;;;;;12.30;4.00;;;;;;;;;;4955430;28;20038;-73
2023/05/19 04:36:09;;;;;;;25.13;5.18;;;;;;;;;;4950737;28;20019;-73
2023/05/19 04:38:36;;;;;;;16.65;5.43;;;;;;;;;;4950595;28;20046;-73
2023/05/19 04:41:03;;;;;;;16.95;5.30;;;;;;;;;;4948734;28;20031;-73
2023/05/19 04:43:29;;;;;;;15.27;4.93;;;;;;;;;;4949348;28;20042;-72
2023/05/19 04:45:56;;;;;;;31.90;15.77;;;;;;;;;;4955532;28;20027;-72
2023/05/19 04:48:23;;;;;;;26.67;12.13;;;;;;;;;;4954696;28;20103;-71
2023/05/19 04:50:50;;;;;;;18.65;7.68;;;;;;;;;;4938979;28;20024;-72
2023/05/19 04:53:17;;;;;;;15.82;4.75;;;;;;;;;;4945481;28;20362;-73
2023/05/19 04:55:43;;;;;;;11.80;4.28;;;;;;;;;;4950145;28;20577;-73
2023/05/19 04:58:09;;;;;;;14.57;4.38;;;;;;;;;;4951748;29;20043;-73
2023/05/19 05:00:36;;;;;;;13.45;5.30;;;;;;;;;;4946965;28;20050;-74
2023/05/19 05:03:03;;;;;;;18.05;5.35;;;;;;;;;;4947090;28;20075;-73
2023/05/19 05:05:30;;;;;;;12.27;5.15;;;;;;;;;;4948481;28;20035;-74
2023/05/19 05:07:57;;;;;;;15.73;5.50;;;;;;;;;;4951291;28;20374;-74
2023/05/19 05:10:23;;;;;;;10.77;4.80;;;;;;;;;;4954161;28;20028;-73
2023/05/19 05:12:49;;;;;;;22.55;5.47;;;;;;;;;;4948225;28;20043;-74
2023/05/19 05:15:15;;;;;;;16.63;5.53;;;;;;;;;;4952972;28;20036;-75
2023/05/19 05:17:42;;;;;;;21.10;6.40;;;;;;;;;;4953325;28;20042;-73
2023/05/19 05:20:08;;;;;;;24.33;6.18;;;;;;;;;;4945358;28;20114;-74
2023/05/19 05:22:35;;;;;;;15.10;6.72;;;;;;;;;;4951524;29;20127;-73
2023/05/19 05:25:01;;;;;;;11.45;5.47;;;;;;;;;;4951114;28;20371;-74
2023/05/19 05:27:27;;;;;;;22.52;5.47;;;;;;;;;;4944207;28;20023;-74
2023/05/19 05:29:53;;;;;;;12.90;5.55;;;;;;;;;;4949357;28;20046;-73
2023/05/19 05:32:19;;;;;;;18.00;6.20;;;;;;;;;;4954323;28;20035;-75
2023/05/19 05:34:45;;;;;;;17.30;7.40;;;;;;;;;;4945429;28;20606;-72
2023/05/19 05:37:11;;;;;;;28.67;14.48;;;;;;;;;;4950572;29;20477;-71
2023/05/19 05:39:37;;;;;;;17.33;8.18;;;;;;;;;;4934917;29;20039;-72
2023/05/19 05:42:04;;;;;;;13.93;6.45;;;;;;;;;;4962399;28;20433;-73
2023/05/19 05:44:30;;;;;;;14.55;5.47;;;;;;;;;;4947496;28;20039;-73
2023/05/19 05:46:56;;;;;;;16.77;5.88;;;;;;;;;;4951723;28;20035;-76
2023/05/19 05:49:22;;;;;;;18.02;5.22;;;;;;;;;;4966735;28;20117;-75
2023/05/19 05:51:48;;;;;;;19.30;6.47;;;;;;;;;;4950697;29;20031;-75
2023/05/19 05:54:16;;;;;;;15.30;6.03;;;;;;;;;;4949877;28;20035;-75
2023/05/19 05:56:42;;;;;;;20.17;5.30;;;;;;;;;;4949742;28;20450;-74
2023/05/19 05:59:08;;;;;;;18.80;6.43;;;;;;;;;;4942646;28;20678;-74
2023/05/19 06:01:35;;;;;;;12.43;4.95;;;;;;;;;;4943217;28;20043;-74
2023/05/19 06:04:01;;;;;;;14.93;5.53;;;;;;;;;;4918396;28;20188;-75
2023/05/19 06:06:27;;;;;;;14.02;5.55;;;;;;;;;;4944652;28;20035;-75
2023/05/19 06:08:53;;;;;;;23.67;9.25;;;;;;;;;;4941868;28;20531;-77
2023/05/19 06:11:20;;;;;;;27.73;11.52;;;;;;;;;;4953587;28;20118;-73
2023/05/19 06:13:46;;;;;;;16.02;5.80;;;;;;;;;;4955045;29;20420;-74
2023/05/19 06:16:12;;;;;;;14.30;4.53;;;;;;;;;;4948579;28;20039;-74
2023/05/19 06:18:38;;;;;;;16.13;4.57;;;;;;;;;;4937229;28;20171;-74
2023/05/19 06:21:05;;;;;;;9.45;3.53;;;;;;;;;;4931332;28;20078;-74
2023/05/19 06:23:31;;;;;;;11.27;4.03;;;;;;;;;;4942009;28;20517;-74
2023/05/19 06:25:57;;;;;;;9.90;4.45;;;;;;;;;;4944543;28;20036;-74
2023/05/19 06:28:23;;;;;;;13.45;4.00;;;;;;;;;;4944935;28;20512;-74
2023/05/19 06:30:49;;;;;;;15.13;4.82;;;;;;;;;;4944323;28;20086;-74
2023/05/19 06:33:15;;;;;;;16.27;4.50;;;;;;;;;;4941312;28;20436;-74
2023/05/19 06:35:41;;;;;;;14.95;3.83;;;;;;;;;;4945036;28;20039;-74
2023/05/19 06:38:07;;;;;;;13.68;3.60;;;;;;;;;;4946770;28;20043;-75
2023/05/19 06:40:34;;;;;;;14.90;3.72;;;;;;;;;;4948648;28;20043;-74
2023/05/19 06:43:00;;;;;;;10.38;3.65;;;;;;;;;;4943655;28;20032;-74
2023/05/19 06:45:26;;;;;;;15.43;3.53;;;;;;;;;;4943918;28;20035;-74
2023/05/19 06:47:53;;;;;;;12.45;3.50;;;;;;;;;;4944884;28;20676;-75
2023/05/19 06:50:19;;;;;;;13.27;3.40;;;;;;;;;;4942663;28;20188;-74
2023/05/19 06:52:45;;;;;;;9.45;3.45;;;;;;;;;;4942529;28;20043;-75
2023/05/19 06:55:12;;;;;;;17.27;4.03;;;;;;;;;;4941352;28;20039;-74
2023/05/19 06:57:38;;;;;;;11.50;3.33;;;;;;;;;;4940674;28;20508;-74
2023/05/19 07:00:05;;;;;;;9.07;2.97;;;;;;;;;;4945103;28;20040;-74
2023/05/19 07:02:31;;;;;;;13.05;3.35;;;;;;;;;;4938209;28;20043;-74
2023/05/19 07:04:57;;;;;;;14.18;3.85;;;;;;;;;;4938714;28;20054;-75
2023/05/19 07:07:23;;;;;;;8.73;3.10;;;;;;;;;;4939866;28;20457;-82
2023/05/19 07:09:49;;;;;;;12.70;3.25;;;;;;;;;;4947892;28;20042;-74
2023/05/19 07:12:15;;;;;;;12.00;3.08;;;;;;;;;;4944318;28;20531;-74
2023/05/19 07:14:41;;;;;;;9.32;2.22;;;;;;;;;;4941047;28;20071;-75
2023/05/19 07:17:08;;;;;;;10.63;2.65;;;;;;;;;;4943511;28;20129;-75
2023/05/19 07:19:34;;;;;;;10.00;3.42;;;;;;;;;;4943917;28;20031;-77
2023/05/19 07:22:00;;;;;;;10.95;2.67;;;;;;;;;;4944109;28;20051;-76
2023/05/19 07:24:26;;;;;;;7.97;2.50;;;;;;;;;;4945965;28;20098;-76
2023/05/19 07:26:52;;;;;;;11.95;2.70;;;;;;;;;;4946530;28;20117;-75
2023/05/19 07:29:18;;;;;;;9.52;2.97;;;;;;;;;;4944670;28;20035;-76
2023/05/19 07:31:44;;;;;;;7.13;2.08;;;;;;;;;;4950085;28;20034;-76
2023/05/19 07:34:10;;;;;;;10.93;2.67;;;;;;;;;;4943328;28;20031;-76
2023/05/19 07:36:36;;;;;;;14.52;3.85;;;;;;;;;;4947494;28;20050;-76
2023/05/19 07:39:02;;;;;;;10.68;2.33;;;;;;;;;;4927700;28;20036;-76
2023/05/19 07:41:28;;;;;;;12.48;2.38;;;;;;;;;;4947876;28;20043;-75
2023/05/19 07:43:55;;;;;;;9.95;2.65;;;;;;;;;;4945680;28;20047;-75
2023/05/19 07:46:21;;;;;;;7.65;2.65;;;;;;;;;;4947106;28;20219;-75
2023/05/19 07:48:47;;;;;;;10.43;2.80;;;;;;;;;;4939319;28;20047;-76
2023/05/19 07:51:13;;;;;;;8.80;3.05;;;;;;;;;;4944595;28;20454;-76
2023/05/19 07:53:39;;;;;;;8.90;2.90;;;;;;;;;;4944606;28;20042;-76
2023/05/19 07:56:05;;;;;;;9.43;2.38;;;;;;;;;;4946227;28;20039;-76
2023/05/19 07:58:31;;;;;;;12.75;3.00;;;;;;;;;;4945089;28;20031;-75
2023/05/19 08:00:57;;;;;;;8.40;1.92;;;;;;;;;;4942968;28;20060;-75
2023/05/19 08:03:23;;;;;;;6.07;2.03;;;;;;;;;;4943959;28;20477;-76
2023/05/19 08:05:49;;;;;;;6.78;2.20;;;;;;;;;;4941392;28;20405;-73
2023/05/19 08:08:16;;;;;;;13.30;7.05;;;;;;;;;;4946631;28;20457;-73
2023/05/19 08:10:42;;;;;;;8.95;3.78;;;;;;;;;;4942350;28;20496;-74
2023/05/19 08:13:08;;;;;;;9.05;2.55;;;;;;;;;;4946361;28;20039;-74
2023/05/19 08:15:34;;;;;;;7.20;2.55;;;;;;;;;;4944136;28;20393;-74
2023/05/19 08:18:00;;;;;;;7.45;2.88;;;;;;;;;;4945092;28;20483;-74
2023/05/19 08:20:26;;;;;;;10.05;2.70;;;;;;;;;;4943520;28;20051;-76
2023/05/19 08:22:52;;;;;;;10.05;4.13;;;;;;;;;;4942833;28;20032;-74
2023/05/19 08:25:18;;;;;;;7.68;3.35;;;;;;;;;;4944488;28;20051;-76
2023/05/19 08:27:44;;;;;;;8.68;2.28;;;;;;;;;;4948936;28;20053;-75
2023/05/19 08:30:11;;;;;;;9.38;2.40;;;;;;;;;;4946269;28;20113;-75
2023/05/19 08:32:37;;;;;;;6.15;2.20;;;;;;;;;;4941428;28;20058;-75
2023/05/19 08:35:03;;;;;;;8.50;2.55;;;;;;;;;;4943843;28;20495;-75
2023/05/19 08:37:29;;;;;;;6.63;2.70;;;;;;;;;;4944951;28;20050;-74
2023/05/19 08:39:56;;;;;;;9.07;2.60;;;;;;;;;;4948040;28;20111;-74
2023/05/19 08:42:22;;;;;;;9.45;2.30;;;;;;;;;;4947107;28;20717;-76
2023/05/19 08:44:48;;;;;;;14.65;2.25;;;;;;;;;;4944938;28;20032;-74
2023/05/19 08:47:14;;;;;;;11.38;3.00;;;;;;;;;;4951855;28;20396;-75
2023/05/19 08:49:43;;;;;;;8.38;2.65;;;;;;;;;;4944544;28;20027;-76
2023/05/19 08:52:12;;;;;;;9.95;3.00;;;;;;;;;;4944736;28;20168;-76
2023/05/19 08:54:45;;;;;;;11.57;2.78;;;;;;;;;;4953545;28;20471;-74
2023/05/19 08:57:12;;;;;;;7.93;3.13;;;;;;;;;;4947510;28;20102;-78
2023/05/19 08:59:39;;;;;;;7.65;2.55;;;;;;;;;;4945107;28;20019;-74
2023/05/19 09:02:05;;;;;;;6.30;3.13;;;;;;;;;;4945436;28;20150;-75
2023/05/19 09:04:31;;;;;;;9.45;2.80;;;;;;;;;;4945249;28;20114;-75
2023/05/19 09:07:01;;;;;;;9.38;2.63;;;;;;;;;;4943840;28;20050;-75
2023/05/19 09:09:27;;;;;;;9.18;3.40;;;;;;;;;;4945586;28;20076;-75
2023/05/19 09:11:53;;;;;;;9.23;2.47;;;;;;;;;;4944403;28;20043;-75
2023/05/19 09:14:19;;;;;;;6.80;2.15;;;;;;;;;;4942868;28;20519;-77
2023/05/19 09:16:49;;;;;;;9.32;2.85;;;;;;;;;;4945266;28;20529;-76
2023/05/19 09:19:15;;;;;;;5.53;2.58;;;;;;;;;;4944549;28;20591;-74
2023/05/19 09:21:42;;;;;;;6.53;2.22;;;;;;;;;;4945359;28;20034;-74
2023/05/19 09:24:09;;;;;;;5.63;2.42;;;;;;;;;;4941174;28;20054;-75
2023/05/19 09:26:44;;;;;;;6.13;2.40;;;;;;;;;;4941639;28;20122;-75
2023/05/19 09:29:13;;;;;;;5.32;1.80;;;;;;;;;;4956678;28;20036;-75
2023/05/19 09:31:40;;;;;;;7.85;2.78;;;;;;;;;;4939538;28;20034;-74
2023/05/19 09:34:12;;;;;;;8.57;2.90;;;;;;;;;;4942657;28;20031;-74
2023/05/19 09:36:40;;;;;;;7.13;2.42;;;;;;;;;;4946315;28;20465;-74
2023/05/19 09:39:13;;;;;;;7.70;2.38;;;;;;;;;;4948992;28;20037;-74
2023/05/19 09:41:39;;;;;;;5.80;2.22;;;;;;;;;;4947004;28;20027;-73
2023/05/19 09:44:06;;;;;;;5.95;2.10;;;;;;;;;;4947812;28;20051;-74
2023/05/19 09:46:34;;;;;;;13.70;2.47;;;;;;;;;;4947747;28;20481;-74
2023/05/19 09:49:00;;;;;;;8.05;2.28;;;;;;;;;;4947500;28;20040;-76
2023/05/19 09:51:26;;;;;;;24.45;17.38;;;;;;;;;;4942940;28;20496;-74
2023/05/19 09:53:52;;;;;;;8.70;4.65;;;;;;;;;;4952193;28;20042;-72
2023/05/19 09:56:22;;;;;;;6.00;2.53;;;;;;;;;;4951825;28;20444;-74
2023/05/19 09:58:48;;;;;;;5.78;2.97;;;;;;;;;;4953465;29;20035;-75
2023/05/19 10:01:14;;;;;;;6.85;2.15;;;;;;;;;;4954360;28;20023;-72
2023/05/19 10:03:41;;;;;;;5.05;2.00;;;;;;;;;;4954896;28;20043;-71
2023/05/19 10:06:08;;;;;;;9.48;2.50;;;;;;;;;;4944072;28;20086;-74
2023/05/19 10:08:34;;;;;;;9.63;2.80;;;;;;;;;;4945582;28;20151;-73
2023/05/19 10:11:01;;;;;;;9.65;2.50;;;;;;;;;;4945000;28;20035;-74
2023/05/19 10:13:28;;;;;;;4.93;2.58;;;;;;;;;;4945755;28;20960;-73
2023/05/19 10:15:55;;;;;;;6.25;2.42;;;;;;;;;;4945340;28;20044;-73
2023/05/19 10:18:22;;;;;;;6.28;2.50;;;;;;;;;;4944015;28;20039;-73
2023/05/19 10:20:49;;;;;;;6.47;2.45;;;;;;;;;;4947211;28;20110;-74
2023/05/19 10:23:15;;;;;;;6.07;2.42;;;;;;;;;;4944675;28;20413;-74
2023/05/19 10:25:42;;;;;;;9.02;2.85;;;;;;;;;;4945888;28;20054;-74
2023/05/19 10:28:16;;;;;;;11.32;2.53;;;;;;;;;;4949057;28;20039;-74
2023/05/19 10:30:47;;;;;;;9.45;4.35;;;;;;;;;;4947332;28;20063;-73
2023/05/19 10:33:16;;;;;;;18.67;8.88;;;22.60;99.90;;;;;;4947597;28;20576;-74
2023/05/19 10:35:47;;;;;;;9.23;2.55;;;22.70;99.90;;;;;;4944547;28;20035;-77
2023/05/19 10:38:42;;;;;;;8.70;2.55;;;23.00;99.90;;;;;;4944511;28;20365;-75
2023/05/19 10:41:13;;;;;;;7.60;2.17;;;;;;;;;;4941504;28;20032;-76
2023/05/19 10:43:39;;;;;;;6.32;2.78;;;;;;;;;;4943683;28;20035;-76
2023/05/19 10:46:05;;;;;;;6.72;2.55;;;;;;;;;;4941010;28;20027;-76
2023/05/19 10:48:35;;;;;;;6.47;2.40;;;;;;;;;;4945722;28;20105;-76
2023/05/19 10:51:01;;;;;;;14.38;3.25;;;;;;;;;;4942459;28;20417;-75
2023/05/19 10:53:33;;;;;;;7.15;2.30;;;;;;;;;;4944623;28;20031;-74
2023/05/19 10:56:03;;;;;;;6.85;2.55;;;23.20;99.90;;;;;;4942513;28;20035;-75
2023/05/19 10:58:51;;;;;;;5.35;2.25;;;23.00;99.90;;;;;;4947289;28;20106;-74
2023/05/19 11:01:19;;;;;;;9.55;3.00;;;;;;;;;;4935237;28;20067;-75
2023/05/19 11:03:50;;;;;;;7.47;2.40;;;;;;;;;;4941433;28;20038;-74
2023/05/19 11:06:20;;;;;;;5.65;2.38;;;22.80;99.90;;;;;;4945308;28;20046;-76
2023/05/19 11:08:46;;;;;;;9.88;2.65;;;;;;;;;;4946912;28;20039;-75
2023/05/19 11:11:16;;;;;;;9.35;2.40;;;;;;;;;;4945825;28;20039;-76
2023/05/19 11:13:55;;;;;;;18.73;7.57;;;22.90;99.90;;;;;;4946001;28;20031;-73
2023/05/19 11:16:28;;;;;;;10.55;3.58;;;;;;;;;;4947596;28;20035;-73
2023/05/19 11:18:55;;;;;;;9.88;3.20;;;;;;;;;;4943457;28;20059;-73
2023/05/19 11:21:21;;;;;;;8.55;2.55;;;;;;;;;;4943085;28;20130;-74
2023/05/19 11:23:47;;;;;;;9.57;2.50;;;;;;;;;;4941144;28;20580;-74
2023/05/19 11:26:13;;;;;;;7.18;2.50;;;;;;;;;;4957485;28;20366;-74
2023/05/19 11:28:40;;;;;;;6.25;2.25;;;;;;;;;;4951078;28;20473;-74
2023/05/19 11:31:07;;;;;;;5.70;2.33;;;;;;;;;;4960511;28;20039;-73
2023/05/19 11:33:33;;;;;;;8.23;2.10;;;;;;;;;;4957804;28;20039;-75
2023/05/19 11:35:59;;;;;;;5.93;2.35;;;;;;;;;;4946182;29;20035;-76
2023/05/19 11:38:26;;;;;;;7.57;2.22;;;;;;;;;;4947863;28;20039;-75
2023/05/19 11:40:53;;;;;;;7.30;2.40;;;;;;;;;;4944416;28;20549;-75
2023/05/19 11:43:21;;;;;;;4.47;1.90;;;;;;;;;;4940374;28;20071;-75
2023/05/19 11:45:47;;;;;;;8.30;2.20;;;;;;;;;;4942438;28;20035;-75
2023/05/19 11:48:17;;;;;;;6.82;1.83;;;;;;;;;;4938092;29;20400;-76
2023/05/19 11:50:43;;;;;;;5.50;1.63;;;;;;;;;;4943846;28;20016;-74
2023/05/19 11:53:12;;;;;;;7.20;1.77;;;22.20;99.90;;;;;;4947892;28;20524;-76
2023/05/19 11:55:42;;;;;;;6.68;1.90;;;;;;;;;;4943443;28;20036;-74
2023/05/19 11:58:08;;;;;;;5.68;1.73;;;;;;;;;;4942149;28;20367;-75
2023/05/19 12:00:37;;;;;;;6.38;1.95;;;21.90;99.90;;;;;;4942417;28;20436;-76
2023/05/19 12:03:04;;;;;;;5.13;2.08;;;;;;;;;;4938444;28;20036;-78
2023/05/19 12:05:30;;;;;;;4.13;1.70;;;;;;;;;;4946686;28;20031;-74
2023/05/19 12:07:56;;;;;;;6.43;2.25;;;;;;;;;;4952099;28;20039;-75
2023/05/19 12:10:29;;;;;;;6.90;2.08;;;;;;;;;;4942545;28;20469;-75
2023/05/19 12:12:56;;;;;;;6.47;2.97;;;;;;;;;;4944345;29;20110;-75
2023/05/19 12:15:22;;;;;;;7.28;2.05;;;;;;;;;;4942546;28;20035;-74
2023/05/19 12:17:58;;;;;;;7.57;2.00;;;;;;;;;;4937542;28;20055;-74
2023/05/19 12:20:25;;;;;;;5.15;1.70;;;;;;;;;;4940008;28;20032;-74
2023/05/19 12:22:51;;;;;;;7.07;2.50;;;;;;;;;;4934680;28;20139;-74
2023/05/19 12:25:17;;;;;;;7.63;1.77;;;;;;;;;;4945444;28;20098;-73
2023/05/19 12:27:44;;;;;;;4.20;1.80;;;;;;;;;;4939537;28;20034;-74
2023/05/19 12:30:11;;;;;;;10.02;1.90;;;;;;;;;;4946571;28;20140;-74
2023/05/19 12:32:37;;;;;;;5.53;1.90;;;;;;;;;;4937999;28;20111;-73
2023/05/19 12:35:04;;;;;;;5.15;1.73;;;;;;;;;;4942869;28;20055;-75
2023/05/19 12:37:32;;;;;;;6.05;1.65;;;;;;;;;;4935953;28;20524;-74
2023/05/19 12:39:58;;;;;;;3.67;1.45;;;;;;;;;;4934983;28;20023;-75
2023/05/19 12:42:30;;;;;;;5.05;1.83;;;22.80;99.90;;;;;;4943082;28;20066;-75
2023/05/19 12:44:57;;;;;;;4.68;1.50;;;;;;;;;;4946338;28;20035;-75
2023/05/19 12:47:29;;;;;;;4.88;1.65;;;;;;;;;;4949108;28;20031;-74
2023/05/19 12:50:02;;;;;;;2.40;1.35;;;;;;;;;;4947137;28;20028;-74
2023/05/19 12:52:29;;;;;;;4.50;1.90;;;22.70;99.90;;;;;;4941507;28;20180;-75
2023/05/19 12:55:09;;;;;;;4.50;1.65;;;;;;;;;;4940492;28;20031;-74
2023/05/19 12:57:36;;;;;;;8.07;2.33;;;;;;;;;;4943857;28;20481;-74
2023/05/19 13:00:06;;;;;;;6.72;1.90;;;;;;;;;;4937753;28;20114;-74
2023/05/19 13:02:34;;;;;;;4.65;2.10;;;;;;;;;;4941189;28;20050;-74
2023/05/19 13:05:00;;;;;;;7.03;1.90;;;;;;;;;;4939942;28;20469;-74
2023/05/19 13:07:26;;;;;;;5.18;2.03;;;;;;;;;;4943287;28;20035;-74
2023/05/19 13:09:52;;;;;;;9.73;2.10;;;;;;;;;;4937763;28;20438;-74
2023/05/19 13:12:19;;;;;;;5.45;2.15;;;;;;;;;;4941269;28;20043;-73
2023/05/19 13:14:45;;;;;;;7.18;2.03;;;;;;;;;;4946311;28;20023;-73
2023/05/19 13:17:11;;;;;;;5.10;1.88;;;;;;;;;;4948002;28;20101;-74
2023/05/19 13:19:37;;;;;;;6.10;2.13;;;;;;;;;;4942003;28;20028;-75
2023/05/19 13:22:03;;;;;;;7.55;2.35;;;;;;;;;;4940124;28;20061;-76
2023/05/19 13:24:29;;;;;;;11.93;2.25;;;;;;;;;;4945046;28;20193;-78
2023/05/19 13:26:55;;;;;;;5.30;1.80;;;;;;;;;;4939453;28;20117;-75
2023/05/19 13:29:21;;;;;;;8.45;2.25;;;;;;;;;;4949137;28;20031;-77
2023/05/19 13:31:47;;;;;;;5.97;1.70;;;;;;;;;;4948773;28;20507;-77
2023/05/19 13:34:13;;;;;;;6.68;1.80;;;;;;;;;;4946336;28;20077;-80
2023/05/19 13:36:40;;;;;;;8.50;3.05;;;;;;;;;;4948693;28;20046;-76
2023/05/19 13:39:06;;;;;;;8.15;2.70;;;;;;;;;;4946527;28;20114;-76
2023/05/19 13:41:32;;;;;;;14.55;8.75;;;;;;;;;;4938967;28;20035;-76
2023/05/19 13:43:58;;;;;;;5.25;1.98;;;;;;;;;;4949142;28;20130;-73
2023/05/19 13:46:25;;;;;;;7.18;3.03;;;;;;;;;;4947008;28;20032;-74
2023/05/19 13:48:51;;;;;;;6.03;2.15;;;;;;;;;;4953412;28;20042;-74
2023/05/19 13:51:17;;;;;;;8.73;2.40;;;;;;;;;;4946569;29;20489;-74
2023/05/19 13:53:43;;;;;;;7.85;2.42;;;;;;;;;;4946406;28;20027;-74
2023/05/19 13:56:09;;;;;;;8.20;2.17;;;;;;;;;;4946535;28;20041;-78
2023/05/19 13:58:35;;;;;;;3.50;1.70;;;;;;;;;;4942618;28;20054;-74
2023/05/19 14:01:01;;;;;;;6.45;1.60;;;;;;;;;;4942562;28;20031;-80
2023/05/19 14:03:28;;;;;;;5.97;1.70;;;;;;;;;;4946378;28;20595;-76
2023/05/19 14:05:54;;;;;;;4.63;1.50;;;;;;;;;;4948031;28;20455;-77
2023/05/19 14:08:20;;;;;;;3.95;1.48;;;;;;;;;;4940679;28;20106;-77
2023/05/19 14:10:46;;;;;;;5.80;2.15;;;;;;;;;;4943337;28;20489;-82
2023/05/19 14:13:13;;;;;;;8.98;2.17;;;;;;;;;;4946094;28;20050;-74
2023/05/19 14:15:39;;;;;;;7.47;2.13;;;;;;;;;;4946933;28;20026;-74
2023/05/19 14:18:05;;;;;;;7.10;2.08;;;;;;;;;;4944251;28;20028;-79
2023/05/19 14:20:31;;;;;;;5.25;1.70;;;;;;;;;;4942817;28;20485;-77
2023/05/19 14:22:57;;;;;;;6.72;2.22;;;;;;;;;;4951128;28;20042;-77
2023/05/19 14:25:23;;;;;;;8.52;2.40;;;;;;;;;;4964378;28;20441;-76
2023/05/19 14:27:49;;;;;;;4.32;1.88;;;;;;;;;;4952283;28;20481;-81
2023/05/19 14:30:15;;;;;;;6.15;2.13;;;;;;;;;;4954024;28;20086;-79